Time;durP1;ratioP1;P1;durP2;ratioP2;P2;SDS_P1;SDS_P2;PMS_P1;PMS_P2;Temp;Humidity;BMP_temperature;BMP_pressure;BME280_temperature;BME280_humidity;BME280_pressure;Samples;Min_cycle;Max_cycle;Signal;HPM_P1;HPM_P2
2021/11/29 00:00:17;;;;;;;16.50;12.47;;;3.30;1.00;;;;;;5052036;28;20430;-57
2021/11/29 00:02:47;;;;;;;17.00;13.40;;;3.30;1.00;;;;;;5060128;28;20440;-57
2021/11/29 00:05:14;;;;;;;15.20;12.13;;;3.20;1.00;;;;;;5056507;28;20469;-58
2021/11/29 00:07:40;;;;;;;19.67;14.73;;;3.30;1.00;;;;;;5052707;28;20441;-56
2021/11/29 00:10:06;;;;;;;19.90;12.10;;;;;;;;;;5056728;28;20595;-55
2021/11/29 00:12:33;;;;;;;18.40;13.23;;;3.20;1.00;;;;;;5052577;28;20645;-55
2021/11/29 00:14:58;;;;;;;13.23;11.77;;;3.20;1.00;;;;;;5057111;28;20531;-56
2021/11/29 00:17:24;;;;;;;18.97;13.30;;;3.20;1.00;;;;;;5064065;28;20524;-57
2021/11/29 00:19:50;;;;;;;16.70;12.37;;;3.20;1.00;;;;;;5054781;28;20272;-56
2021/11/29 00:22:17;;;;;;;18.57;12.87;;;3.20;1.00;;;;;;5051037;28;20173;-55
2021/11/29 00:24:43;;;;;;;19.53;13.00;;;3.10;1.00;;;;;;5057490;28;20273;-56
2021/11/29 00:27:09;;;;;;;15.90;11.40;;;3.10;1.00;;;;;;5054498;28;20483;-57
2021/11/29 00:29:35;;;;;;;19.07;13.10;;;;;;;;;;5053368;28;20218;-56
2021/11/29 00:32:00;;;;;;;16.30;13.00;;;3.40;1.00;;;;;;5064471;28;20205;-56
2021/11/29 00:34:26;;;;;;;18.23;12.70;;;3.30;1.00;;;;;;5060178;28;20449;-56
2021/11/29 00:36:52;;;;;;;18.23;12.47;;;3.30;1.00;;;;;;5055185;28;20214;-54
2021/11/29 00:39:18;;;;;;;17.30;11.53;;;3.50;1.00;;;;;;5057147;28;20187;-55
2021/11/29 00:41:44;;;;;;;17.20;11.80;;;3.40;1.00;;;;;;5054347;28;20241;-58
2021/11/29 00:44:10;;;;;;;20.40;12.40;;;3.60;1.00;;;;;;5068757;28;20471;-56
2021/11/29 00:46:36;;;;;;;16.47;11.90;;;3.60;1.00;;;;;;5053645;28;20496;-55
2021/11/29 00:49:02;;;;;;;15.20;11.83;;;3.70;1.00;;;;;;5057621;28;20446;-55
2021/11/29 00:51:28;;;;;;;16.30;12.67;;;3.80;1.00;;;;;;5053314;28;20206;-56
2021/11/29 00:53:53;;;;;;;16.83;12.53;;;3.80;1.00;;;;;;5051863;28;20454;-56
2021/11/29 00:56:21;;;;;;;16.90;12.90;;;4.00;1.00;;;;;;5057022;28;20208;-56
2021/11/29 00:58:48;;;;;;;17.23;12.03;;;4.00;1.00;;;;;;5052953;28;20438;-55
2021/11/29 01:01:15;;;;;;;17.23;12.67;;;4.10;1.00;;;;;;5070200;28;20434;-55
2021/11/29 01:03:40;;;;;;;19.43;13.23;;;4.10;1.00;;;;;;5054754;28;20451;-57
2021/11/29 01:06:07;;;;;;;20.07;14.83;;;4.20;1.00;;;;;;5057633;28;20437;-56
2021/11/29 01:08:33;;;;;;;15.77;12.37;;;4.20;1.00;;;;;;5060812;28;20680;-55
2021/11/29 01:11:00;;;;;;;17.77;13.07;;;4.10;1.00;;;;;;5053227;28;20843;-56
2021/11/29 01:13:26;;;;;;;20.97;13.47;;;6.40;1.00;;;;;;5051077;28;20966;-55
2021/11/29 01:15:52;;;;;;;16.90;12.27;;;4.10;1.00;;;;;;5054889;28;20603;-57
2021/11/29 01:18:19;;;;;;;14.17;11.03;;;4.10;1.00;;;;;;5066767;28;20446;-57
2021/11/29 01:20:45;;;;;;;17.70;13.17;;;4.20;1.00;;;;;;5052534;28;20427;-57
2021/11/29 01:23:13;;;;;;;15.10;12.07;;;4.30;1.00;;;;;;5052384;28;20195;-56
2021/11/29 01:25:40;;;;;;;14.17;11.53;;;4.30;1.00;;;;;;5050839;28;20482;-57
2021/11/29 01:28:06;;;;;;;15.30;12.33;;;4.30;1.00;;;;;;5064773;28;20571;-54
2021/11/29 01:30:32;;;;;;;14.30;10.43;;;4.20;1.00;;;;;;5060835;28;20451;-56
2021/11/29 01:32:58;;;;;;;14.83;12.00;;;4.30;1.00;;;;;;5057345;28;20458;-55
2021/11/29 01:35:24;;;;;;;14.23;11.03;;;4.30;1.00;;;;;;5059492;28;20554;-56
2021/11/29 01:37:50;;;;;;;14.17;10.80;;;4.30;1.00;;;;;;5053368;28;20449;-55
2021/11/29 01:40:15;;;;;;;13.70;10.90;;;4.30;1.00;;;;;;5050718;28;20467;-57
2021/11/29 01:42:58;;;;;;;14.00;10.50;;;4.30;1.00;;;;;;5054310;28;20203;-56
2021/11/29 01:45:26;;;;;;;15.67;11.30;;;4.40;1.00;;;;;;5059611;28;20197;-55
2021/11/29 01:47:51;;;;;;;14.97;11.83;;;4.40;1.00;;;;;;5056327;28;20803;-56
2021/11/29 01:50:17;;;;;;;14.10;11.60;;;4.50;1.00;;;;;;5060733;28;20446;-56
2021/11/29 01:52:43;;;;;;;16.40;11.03;;;4.50;1.00;;;;;;5054985;28;20186;-55
2021/11/29 01:55:09;;;;;;;13.43;10.60;;;4.40;1.00;;;;;;5059140;28;20188;-55
2021/11/29 01:57:34;;;;;;;16.17;11.50;;;4.40;1.00;;;;;;5052465;28;20188;-57
2021/11/29 02:00:01;;;;;;;14.40;11.00;;;;;;;;;;5063594;28;20199;-57
2021/11/29 02:02:28;;;;;;;16.53;11.87;;;4.30;1.00;;;;;;5054744;28;20271;-55
2021/11/29 02:04:58;;;;;;;12.77;10.63;;;4.20;1.00;;;;;;5061882;28;20491;-57
2021/11/29 02:07:25;;;;;;;12.90;10.90;;;4.20;1.00;;;;;;5058296;28;20435;-55
2021/11/29 02:09:51;;;;;;;15.20;11.00;;;4.20;1.00;;;;;;5058320;28;20456;-55
2021/11/29 02:12:21;;;;;;;13.97;10.07;;;4.20;1.00;;;;;;5049624;28;20437;-57
2021/11/29 02:14:48;;;;;;;14.00;10.67;;;4.20;1.00;;;;;;5053775;28;20818;-56
2021/11/29 02:17:15;;;;;;;14.80;11.10;;;4.20;1.00;;;;;;5053908;28;20974;-56
2021/11/29 02:19:45;;;;;;;13.23;11.17;;;4.30;1.00;;;;;;5056716;28;20438;-56
2021/11/29 02:22:11;;;;;;;14.23;11.20;;;4.30;1.00;;;;;;5062496;28;20942;-57
2021/11/29 02:24:38;;;;;;;13.00;10.77;;;4.50;1.00;;;;;;5050994;28;20478;-56
2021/11/29 02:27:05;;;;;;;16.73;11.77;;;4.50;1.00;;;;;;5051355;28;20529;-56
2021/11/29 02:29:31;;;;;;;13.77;10.30;;;;;;;;;;5056061;28;20457;-56
2021/11/29 02:31:57;;;;;;;15.70;11.57;;;4.60;1.00;;;;;;5057196;28;20508;-55
2021/11/29 02:34:26;;;;;;;16.37;12.13;;;4.50;1.00;;;;;;5055086;28;20819;-55
2021/11/29 02:36:55;;;;;;;13.10;10.83;;;4.50;1.00;;;;;;5054772;28;20204;-57
2021/11/29 02:39:22;;;;;;;16.20;10.77;;;4.50;1.00;;;;;;5054979;28;20464;-57
2021/11/29 02:41:49;;;;;;;15.13;10.90;;;4.50;1.00;;;;;;5062769;28;20962;-55
2021/11/29 02:44:16;;;;;;;16.17;12.17;;;4.50;1.00;;;;;;5053194;28;20503;-56
2021/11/29 02:46:42;;;;;;;15.27;11.53;;;4.40;1.00;;;;;;5053920;28;20491;-57
2021/11/29 02:49:09;;;;;;;14.77;11.33;;;4.40;1.00;;;;;;5051358;28;20515;-56
2021/11/29 02:51:44;;;;;;;15.70;11.77;;;4.30;1.00;;;;;;5053088;28;20487;-55
2021/11/29 02:54:15;;;;;;;16.40;11.87;;;4.10;1.00;;;;;;5058161;28;20437;-56
2021/11/29 02:56:46;;;;;;;17.17;12.40;;;4.30;1.00;;;;;;5054903;28;20983;-56
2021/11/29 02:59:22;;;;;;;16.53;12.27;;;4.20;1.00;;;;;;5067829;28;20489;-55
2021/11/29 03:01:51;;;;;;;15.97;12.03;;;4.20;1.00;;;;;;5063340;28;20719;-56
2021/11/29 03:04:21;;;;;;;15.43;12.70;;;4.20;1.00;;;;;;5057595;28;20729;-55
2021/11/29 03:06:47;;;;;;;15.20;11.50;;;4.20;1.00;;;;;;5053079;28;20481;-56
2021/11/29 03:09:12;;;;;;;14.37;11.00;;;4.20;1.00;;;;;;5065754;28;20482;-55
2021/11/29 03:11:39;;;;;;;18.73;11.80;;;4.20;1.00;;;;;;5053117;28;20624;-55
2021/11/29 03:14:05;;;;;;;17.30;12.93;;;4.20;1.00;;;;;;5055406;28;20239;-55
2021/11/29 03:16:31;;;;;;;16.20;12.43;;;4.20;1.00;;;;;;5055794;28;20555;-54
2021/11/29 03:18:57;;;;;;;14.43;11.10;;;4.20;1.00;;;;;;5057979;28;20532;-56
2021/11/29 03:21:24;;;;;;;17.93;11.63;;;4.30;1.00;;;;;;5055742;28;20212;-56
2021/11/29 03:23:52;;;;;;;18.33;12.20;;;4.30;1.00;;;;;;5062721;28;20172;-55
2021/11/29 03:26:20;;;;;;;18.30;12.80;;;4.20;1.00;;;;;;5056667;28;20860;-55
2021/11/29 03:28:55;;;;;;;17.00;11.70;;;4.10;1.00;;;;;;5051006;28;20475;-55
2021/11/29 03:31:22;;;;;;;16.83;12.00;;;4.10;1.00;;;;;;5059892;28;20465;-56
2021/11/29 03:33:49;;;;;;;16.43;11.50;;;;;;;;;;5052503;28;21036;-55
2021/11/29 03:36:15;;;;;;;15.07;12.33;;;4.10;1.00;;;;;;5052721;28;20875;-56
2021/11/29 03:38:41;;;;;;;17.00;13.07;;;4.30;1.00;;;;;;5054457;28;20447;-56
2021/11/29 03:41:08;;;;;;;24.40;12.53;;;4.20;1.00;;;;;;5053694;28;20461;-58
2021/11/29 03:43:34;;;;;;;15.00;11.70;;;4.20;1.00;;;;;;5054072;28;20439;-55
2021/11/29 03:46:00;;;;;;;18.83;13.10;;;;;;;;;;5062076;28;20529;-55
2021/11/29 03:48:26;;;;;;;14.83;11.50;;;4.40;1.00;;;;;;5054991;28;20459;-57
2021/11/29 03:50:52;;;;;;;13.87;10.83;;;4.40;1.00;;;;;;5058891;28;20448;-55
2021/11/29 03:53:19;;;;;;;13.50;10.67;;;;;;;;;;5053064;28;20517;-55
2021/11/29 03:55:45;;;;;;;15.17;11.97;;;4.50;1.00;;;;;;5058477;28;20538;-56
2021/11/29 03:58:11;;;;;;;16.93;12.77;;;4.40;1.00;;;;;;5057156;28;20446;-57
2021/11/29 04:00:38;;;;;;;13.83;11.00;;;4.40;1.00;;;;;;5053730;28;20794;-56
2021/11/29 04:03:04;;;;;;;14.83;11.20;;;4.50;1.00;;;;;;5056488;28;20223;-55
2021/11/29 04:05:29;;;;;;;15.57;10.90;;;4.50;1.00;;;;;;5057448;28;20446;-57
2021/11/29 04:07:55;;;;;;;16.27;11.73;;;4.50;1.00;;;;;;5062417;28;20590;-56
2021/11/29 04:10:22;;;;;;;16.13;10.80;;;4.50;1.00;;;;;;5050911;28;20192;-57
2021/11/29 04:12:48;;;;;;;14.67;11.40;;;4.30;1.00;;;;;;5056238;28;20282;-56
2021/11/29 04:15:14;;;;;;;14.30;11.00;;;;;;;;;;5058254;28;20532;-57
2021/11/29 04:17:40;;;;;;;17.40;11.87;;;4.30;1.00;;;;;;5061239;28;20195;-57
2021/11/29 04:20:09;;;;;;;14.77;11.63;;;4.40;1.00;;;;;;5051363;28;21007;-55
2021/11/29 04:22:37;;;;;;;14.90;11.70;;;4.50;1.00;;;;;;5053755;28;20453;-56
2021/11/29 04:25:04;;;;;;;16.50;11.63;;;4.40;1.00;;;;;;5052335;28;20456;-56
2021/11/29 04:27:30;;;;;;;15.73;12.57;;;4.40;1.00;;;;;;5058006;28;20879;-56
2021/11/29 04:29:57;;;;;;;13.10;11.70;;;4.30;1.00;;;;;;5056790;28;20459;-56
2021/11/29 04:32:22;;;;;;;17.20;12.40;;;4.40;1.00;;;;;;5053190;28;20445;-55
2021/11/29 04:34:48;;;;;;;15.37;12.17;;;4.50;1.00;;;;;;5055468;28;20497;-54
2021/11/29 04:37:14;;;;;;;16.20;12.37;;;4.50;1.00;;;;;;5053006;28;20205;-57
2021/11/29 04:39:40;;;;;;;17.50;12.07;;;4.50;1.00;;;;;;5065338;28;20194;-54
2021/11/29 04:42:06;;;;;;;14.43;11.77;;;;;;;;;;5053239;28;20210;-57
2021/11/29 04:44:32;;;;;;;13.60;11.53;;;4.60;1.00;;;;;;5052477;28;20533;-56
2021/11/29 04:46:57;;;;;;;16.53;12.10;;;;;;;;;;5050326;28;20945;-56
2021/11/29 04:49:23;;;;;;;15.40;12.77;;;4.60;1.00;;;;;;5060384;28;20214;-56
2021/11/29 04:51:49;;;;;;;18.13;13.70;;;4.60;1.00;;;;;;5053748;28;20447;-58
2021/11/29 04:54:15;;;;;;;16.87;11.83;;;4.60;1.00;;;;;;5053527;28;20550;-55
2021/11/29 04:56:41;;;;;;;20.90;14.23;;;4.60;1.00;;;;;;5056529;28;20531;-56
2021/11/29 04:59:07;;;;;;;16.47;13.37;;;4.60;1.00;;;;;;5051489;28;20663;-57
2021/11/29 05:01:33;;;;;;;17.47;12.60;;;4.50;1.00;;;;;;5051730;28;20541;-57
2021/11/29 05:03:59;;;;;;;20.23;13.97;;;4.50;1.00;;;;;;5060938;28;20894;-56
2021/11/29 05:06:25;;;;;;;20.30;14.10;;;;;;;;;;5057885;28;20795;-58
2021/11/29 05:08:51;;;;;;;18.23;12.90;;;4.30;1.00;;;;;;5059863;28;20188;-56
2021/11/29 05:11:17;;;;;;;16.23;11.70;;;;;;;;;;5060482;28;20468;-55
2021/11/29 05:13:43;;;;;;;16.90;13.27;;;4.50;1.00;;;;;;5059547;28;20536;-58
2021/11/29 05:16:09;;;;;;;18.33;13.37;;;4.50;1.00;;;;;;5049658;28;20473;-56
2021/11/29 05:18:34;;;;;;;18.73;14.33;;;4.60;1.00;;;;;;5055799;28;20677;-55
2021/11/29 05:21:00;;;;;;;17.40;12.67;;;4.40;1.00;;;;;;5059794;28;20470;-58
2021/11/29 05:23:26;;;;;;;20.50;15.27;;;4.40;1.00;;;;;;5057516;28;21379;-57
2021/11/29 05:25:52;;;;;;;20.70;13.57;;;4.30;1.00;;;;;;5059640;28;20357;-56
2021/11/29 05:28:18;;;;;;;21.23;13.63;;;4.40;1.00;;;;;;5051265;28;20322;-57
2021/11/29 05:30:44;;;;;;;18.60;13.57;;;4.40;1.00;;;;;;5056570;28;20980;-56
2021/11/29 05:33:10;;;;;;;19.17;15.47;;;4.60;1.00;;;;;;5052800;28;20479;-57
2021/11/29 05:35:37;;;;;;;18.80;14.30;;;4.60;1.00;;;;;;5060595;28;20213;-55
2021/11/29 05:38:03;;;;;;;18.30;13.90;;;4.50;1.00;;;;;;5058316;28;20591;-55
2021/11/29 05:40:30;;;;;;;20.23;14.73;;;4.50;1.00;;;;;;5052856;28;20675;-55
2021/11/29 05:42:56;;;;;;;21.27;14.50;;;4.40;1.00;;;;;;5056061;28;20440;-56
2021/11/29 05:45:23;;;;;;;26.77;14.47;;;;;;;;;;5051598;28;20476;-55
2021/11/29 05:47:49;;;;;;;18.47;14.53;;;;;;;;;;5062631;28;20444;-56
2021/11/29 05:50:16;;;;;;;22.80;15.10;;;4.50;1.00;;;;;;5053150;28;20454;-56
2021/11/29 05:52:42;;;;;;;19.10;14.60;;;4.60;1.00;;;;;;5055191;28;20432;-57
2021/11/29 05:55:10;;;;;;;20.23;14.50;;;4.50;1.00;;;;;;5057084;28;20443;-56
2021/11/29 05:57:36;;;;;;;19.10;15.30;;;4.70;1.00;;;;;;5050360;28;20449;-57
2021/11/29 06:00:04;;;;;;;21.20;14.60;;;4.70;1.00;;;;;;5052425;28;20977;-57
2021/11/29 06:02:29;;;;;;;20.60;14.53;;;4.70;1.00;;;;;;5053345;28;20450;-58
2021/11/29 06:04:55;;;;;;;19.93;13.70;;;4.70;1.00;;;;;;5062574;28;20529;-57
2021/11/29 06:07:21;;;;;;;21.90;13.87;;;4.60;1.00;;;;;;5053037;28;20573;-57
2021/11/29 06:09:46;;;;;;;21.40;15.83;;;4.70;1.00;;;;;;5054387;28;20192;-57
2021/11/29 06:12:12;;;;;;;23.83;15.00;;;4.80;1.00;;;;;;5054595;28;20183;-57
2021/11/29 06:14:38;;;;;;;17.27;13.13;;;4.80;1.00;;;;;;5055513;28;20210;-57
2021/11/29 06:17:03;;;;;;;23.57;14.53;;;4.70;1.00;;;;;;5054469;28;20260;-60
2021/11/29 06:19:29;;;;;;;21.40;13.83;;;4.70;1.00;;;;;;5056656;28;20242;-57
2021/11/29 06:21:55;;;;;;;20.50;14.60;;;;;;;;;;5054812;28;20638;-58
2021/11/29 06:24:21;;;;;;;18.20;13.23;;;4.80;1.00;;;;;;5051849;28;20313;-58
2021/11/29 06:26:46;;;;;;;25.00;15.80;;;4.80;1.00;;;;;;5050179;28;20453;-58
2021/11/29 06:29:12;;;;;;;16.53;12.30;;;4.70;1.00;;;;;;5052845;28;20188;-58
2021/11/29 06:31:38;;;;;;;20.93;14.50;;;;;;;;;;5068204;28;20208;-58
2021/11/29 06:34:05;;;;;;;23.57;16.30;;;;;;;;;;5066840;28;20445;-57
2021/11/29 06:36:31;;;;;;;25.40;15.60;;;4.60;1.00;;;;;;5054877;28;20468;-59
2021/11/29 06:38:58;;;;;;;23.10;14.90;;;4.70;1.00;;;;;;5052083;28;20795;-56
2021/11/29 06:41:25;;;;;;;24.30;14.80;;;4.70;1.00;;;;;;5054062;28;20443;-57
2021/11/29 06:43:51;;;;;;;25.80;16.77;;;4.60;1.00;;;;;;5057322;28;20442;-57
2021/11/29 06:46:17;;;;;;;24.10;14.83;;;4.30;1.00;;;;;;5056055;28;20441;-56
2021/11/29 06:48:43;;;;;;;23.50;16.03;;;4.50;1.00;;;;;;5062771;28;20447;-57
2021/11/29 06:51:09;;;;;;;22.23;15.30;;;4.40;1.00;;;;;;5060711;28;20946;-55
2021/11/29 06:53:35;;;;;;;23.80;14.87;;;4.50;1.00;;;;;;5052946;28;20537;-55
2021/11/29 06:56:01;;;;;;;22.57;16.20;;;4.60;1.00;;;;;;5056086;28;21069;-56
2021/11/29 06:58:27;;;;;;;25.17;17.07;;;4.70;1.00;;;;;;5064956;28;20197;-56
2021/11/29 07:00:54;;;;;;;23.80;16.20;;;4.60;1.00;;;;;;5064735;28;20799;-56
2021/11/29 07:03:21;;;;;;;22.73;15.47;;;4.60;1.00;;;;;;5069259;28;20985;-56
2021/11/29 07:05:47;;;;;;;26.87;16.53;;;4.50;1.00;;;;;;5057889;28;20507;-57
2021/11/29 07:08:13;;;;;;;22.70;15.53;;;4.50;1.00;;;;;;5056770;28;20442;-56
2021/11/29 07:10:42;;;;;;;27.50;17.47;;;;;;;;;;5061734;28;20445;-56
2021/11/29 07:13:10;;;;;;;24.27;16.83;;;4.70;1.00;;;;;;5059413;28;20543;-56
2021/11/29 07:15:37;;;;;;;25.00;15.43;;;4.50;1.00;;;;;;5051022;28;20455;-56
2021/11/29 07:18:04;;;;;;;24.77;16.57;;;4.40;1.00;;;;;;5053374;28;20443;-57
2021/11/29 07:20:30;;;;;;;24.80;16.90;;;4.50;1.00;;;;;;5052308;28;20446;-58
2021/11/29 07:22:56;;;;;;;29.30;16.70;;;4.50;1.00;;;;;;5051640;28;20452;-56
2021/11/29 07:25:22;;;;;;;25.20;17.07;;;;;;;;;;5053127;28;21006;-57
2021/11/29 07:27:48;;;;;;;24.60;15.83;;;4.60;1.00;;;;;;5055851;28;20803;-57
2021/11/29 07:30:16;;;;;;;24.70;15.03;;;4.60;1.00;;;;;;5053197;28;20478;-56
2021/11/29 07:32:42;;;;;;;23.00;15.90;;;4.60;1.00;;;;;;5054861;28;20593;-56
2021/11/29 07:35:09;;;;;;;25.40;17.20;;;4.60;1.00;;;;;;5056063;28;20522;-56
2021/11/29 07:37:35;;;;;;;28.90;16.20;;;4.60;1.00;;;;;;5061369;28;20555;-57
2021/11/29 07:40:03;;;;;;;23.27;16.43;;;4.70;1.00;;;;;;5059726;28;20845;-58
2021/11/29 07:42:29;;;;;;;24.57;16.67;;;4.70;1.00;;;;;;5055551;28;20477;-56
2021/11/29 07:44:55;;;;;;;25.53;17.33;;;4.50;1.00;;;;;;5055094;28;21018;-56
2021/11/29 07:47:22;;;;;;;27.90;19.00;;;4.50;1.00;;;;;;5054748;28;20482;-57
2021/11/29 07:49:48;;;;;;;21.67;15.57;;;;;;;;;;5060298;28;20878;-56
2021/11/29 07:52:14;;;;;;;23.67;15.90;;;4.80;1.00;;;;;;5053915;28;20522;-56
2021/11/29 07:54:41;;;;;;;21.50;15.83;;;4.80;1.00;;;;;;5052634;28;20447;-56
2021/11/29 07:57:07;;;;;;;24.57;16.17;;;4.90;1.00;;;;;;5055655;28;20497;-55
2021/11/29 07:59:33;;;;;;;25.03;17.13;;;4.90;1.00;;;;;;5052824;28;20502;-55
2021/11/29 08:01:59;;;;;;;21.43;16.13;;;4.80;1.00;;;;;;5050999;28;20504;-56
2021/11/29 08:04:26;;;;;;;27.50;18.63;;;4.60;1.00;;;;;;5060223;28;20433;-58
2021/11/29 08:06:52;;;;;;;24.87;17.43;;;;;;;;;;5059701;28;20199;-56
2021/11/29 08:09:17;;;;;;;26.07;16.50;;;4.60;1.00;;;;;;5052446;28;20956;-57
2021/11/29 08:11:43;;;;;;;24.00;17.10;;;4.70;1.00;;;;;;5053006;28;20464;-55
2021/11/29 08:14:09;;;;;;;29.03;18.70;;;4.70;1.00;;;;;;5061797;28;20192;-55
2021/11/29 08:16:34;;;;;;;28.10;17.10;;;4.80;1.00;;;;;;5071083;28;21648;-55
2021/11/29 08:19:00;;;;;;;29.97;18.13;;;4.70;1.00;;;;;;5052483;28;20202;-57
2021/11/29 08:21:26;;;;;;;26.60;18.53;;;;;;;;;;5051491;28;20187;-57
2021/11/29 08:23:52;;;;;;;26.80;16.87;;;4.70;1.00;;;;;;5051777;28;20494;-56
2021/11/29 08:26:18;;;;;;;28.00;17.47;;;;;;;;;;5051748;28;20481;-58
2021/11/29 08:28:43;;;;;;;28.10;17.23;;;4.80;1.00;;;;;;5051179;28;20199;-56
2021/11/29 08:31:09;;;;;;;25.60;16.40;;;5.00;1.00;;;;;;5050465;28;20442;-55
2021/11/29 08:33:35;;;;;;;27.10;17.97;;;5.00;1.00;;;;;;5052144;28;20191;-58
2021/11/29 08:36:01;;;;;;;27.43;17.67;;;5.00;1.00;;;;;;5049688;28;20587;-58
2021/11/29 08:38:27;;;;;;;27.37;17.50;;;;;;;;;;5050839;28;20664;-57
2021/11/29 08:40:52;;;;;;;27.80;17.80;;;4.90;1.00;;;;;;5052922;28;20450;-55
2021/11/29 08:43:19;;;;;;;26.83;18.77;;;4.90;1.00;;;;;;5054744;28;20454;-57
2021/11/29 08:45:48;;;;;;;28.37;18.03;;;5.00;1.00;;;;;;5053015;28;20198;-55
2021/11/29 08:48:15;;;;;;;30.60;18.10;;;4.90;1.00;;;;;;5059955;28;20413;-57
2021/11/29 08:50:44;;;;;;;26.90;16.20;;;5.00;1.00;;;;;;5052031;28;20454;-57
2021/11/29 08:53:12;;;;;;;25.70;17.40;;;5.00;1.00;;;;;;5050520;28;20444;-58
2021/11/29 08:55:38;;;;;;;29.37;18.03;;;;;;;;;;5057317;28;20454;-55
2021/11/29 08:58:06;;;;;;;21.97;15.53;;;5.00;1.00;;;;;;5064673;28;20787;-56
2021/11/29 09:00:33;;;;;;;24.17;17.93;;;5.00;1.00;;;;;;5050063;28;20457;-58
2021/11/29 09:03:00;;;;;;;23.50;16.13;;;4.90;1.00;;;;;;5054245;28;20446;-56
2021/11/29 09:05:26;;;;;;;26.87;16.53;;;4.80;1.00;;;;;;5052752;28;20454;-58
2021/11/29 09:07:52;;;;;;;26.73;18.20;;;4.80;1.00;;;;;;5049568;28;20443;-55
2021/11/29 09:10:19;;;;;;;27.37;17.93;;;4.90;1.00;;;;;;5055375;28;20444;-56
2021/11/29 09:12:45;;;;;;;25.10;15.97;;;5.00;1.00;;;;;;5060031;28;20445;-56
2021/11/29 09:15:16;;;;;;;26.10;17.80;;;5.00;1.00;;;;;;5053919;28;20446;-55
2021/11/29 09:17:42;;;;;;;26.90;16.63;;;;;;;;;;5051295;28;20214;-57
2021/11/29 09:20:11;;;;;;;27.80;16.70;;;5.20;1.00;;;;;;5049105;28;20442;-56
2021/11/29 09:22:38;;;;;;;27.87;17.43;;;4.80;1.00;;;;;;5049609;28;20500;-55
2021/11/29 09:25:05;;;;;;;28.10;18.10;;;4.60;1.00;;;;;;5058312;28;20468;-57
2021/11/29 09:27:31;;;;;;;25.03;15.37;;;4.60;1.00;;;;;;5051462;28;20888;-57
2021/11/29 09:29:58;;;;;;;31.80;19.23;;;4.80;1.00;;;;;;5050181;28;20446;-56
2021/11/29 09:32:24;;;;;;;25.60;16.00;;;4.70;1.00;;;;;;5049879;28;20464;-56
2021/11/29 09:34:50;;;;;;;25.13;17.57;;;4.60;1.00;;;;;;5050705;28;20199;-57
2021/11/29 09:37:18;;;;;;;28.10;16.10;;;4.60;1.00;;;;;;5062817;28;20465;-58
2021/11/29 09:39:45;;;;;;;25.53;16.80;;;4.60;1.00;;;;;;5069957;28;20551;-57
2021/11/29 09:42:11;;;;;;;26.93;17.67;;;4.80;1.00;;;;;;5070044;28;20927;-58
2021/11/29 09:44:37;;;;;;;25.30;15.77;;;;;;;;;;5053454;28;21047;-56
2021/11/29 09:47:04;;;;;;;26.10;18.00;;;4.90;1.00;;;;;;5049860;28;20930;-56
2021/11/29 09:49:30;;;;;;;26.47;17.97;;;;;;;;;;5049828;28;20468;-57
2021/11/29 09:52:00;;;;;;;23.00;14.03;;;4.90;1.00;;;;;;5049525;28;20880;-57
2021/11/29 09:54:28;;;;;;;27.20;17.90;;;4.90;1.00;;;;;;5051734;28;20820;-56
2021/11/29 09:56:54;;;;;;;24.30;16.60;;;5.00;1.00;;;;;;5068532;28;20469;-55
2021/11/29 09:59:23;;;;;;;22.03;15.87;;;4.90;1.00;;;;;;5069906;28;20795;-57
2021/11/29 10:01:50;;;;;;;22.17;15.73;;;5.00;1.00;;;;;;5054622;28;20806;-57
2021/11/29 10:04:16;;;;;;;28.27;16.93;;;5.10;1.00;;;;;;5056925;28;20460;-57
2021/11/29 10:06:42;;;;;;;26.10;17.13;;;5.20;1.00;;;;;;5057621;28;20956;-58
2021/11/29 10:09:27;;;;;;;25.00;16.60;;;5.10;1.00;;;;;;5049839;28;20318;-57
2021/11/29 10:11:53;;;;;;;24.17;16.20;;;;;;;;;;5048577;28;20444;-56
2021/11/29 10:14:19;;;;;;;26.23;16.70;;;;;;;;;;5049760;28;20540;-56
2021/11/29 10:16:46;;;;;;;23.67;15.73;;;5.10;1.00;;;;;;5050079;28;20531;-56
2021/11/29 10:19:21;;;;;;;26.20;16.40;;;5.20;1.00;;;;;;5051240;28;20438;-56
2021/11/29 10:21:48;;;;;;;27.80;15.53;;;5.20;1.00;;;;;;5059116;28;20528;-57
2021/11/29 10:24:22;;;;;;;25.80;16.20;;;5.30;1.00;;;;;;5073207;28;20436;-58
2021/11/29 10:26:50;;;;;;;24.17;15.80;;;5.30;1.00;;;;;;5068043;28;20436;-57
2021/11/29 10:29:16;;;;;;;24.53;17.93;;;;;;;;;;5073550;28;20434;-57
2021/11/29 10:31:46;;;;;;;25.50;14.77;;;5.20;1.00;;;;;;5073332;28;20532;-56
2021/11/29 10:34:27;;;;;;;22.43;14.10;;;5.30;1.00;;;;;;5073379;28;20926;-56
2021/11/29 10:37:14;;;;;;;22.50;16.17;;;5.40;1.00;;;;;;5069821;28;20461;-56
2021/11/29 10:39:43;;;;;;;19.80;14.13;;;5.40;1.00;;;;;;5051179;28;21001;-56
2021/11/29 10:42:10;;;;;;;22.80;14.20;;;;;;;;;;5051568;28;20659;-56
2021/11/29 10:44:38;;;;;;;19.10;13.70;;;5.40;1.00;;;;;;5050420;28;20528;-57
2021/11/29 10:47:08;;;;;;;23.57;15.60;;;5.30;1.00;;;;;;5053309;28;20524;-57
2021/11/29 10:49:38;;;;;;;21.37;13.83;;;5.40;1.00;;;;;;5052920;28;20446;-56
2021/11/29 10:52:05;;;;;;;20.07;14.70;;;5.00;1.00;;;;;;5068355;28;20455;-56
2021/11/29 10:54:34;;;;;;;21.13;14.80;;;5.00;1.00;;;;;;5072927;28;20468;-56
2021/11/29 10:57:01;;;;;;;21.73;13.40;;;5.00;1.00;;;;;;5066968;28;20515;-56
2021/11/29 10:59:35;;;;;;;20.20;11.70;;;4.90;1.00;;;;;;5053223;28;20508;-58
2021/11/29 11:02:04;;;;;;;21.77;13.80;;;5.00;1.00;;;;;;5053102;28;20913;-55
2021/11/29 11:04:34;;;;;;;19.20;13.20;;;5.20;1.00;;;;;;5052797;28;20446;-57
2021/11/29 11:07:02;;;;;;;17.80;13.60;;;5.20;1.00;;;;;;5052924;28;20442;-55
2021/11/29 11:09:30;;;;;;;19.47;13.60;;;5.20;1.00;;;;;;5052430;28;20438;-58
2021/11/29 11:12:11;;;;;;;19.80;13.53;;;5.30;1.00;;;;;;5056591;28;20914;-56
2021/11/29 11:14:40;;;;;;;24.23;13.87;;;5.30;1.00;;;;;;5052574;28;20438;-56
2021/11/29 11:17:11;;;;;;;17.70;12.13;;;5.20;1.00;;;;;;5051843;28;20470;-57
2021/11/29 11:19:43;;;;;;;18.60;11.87;;;5.20;1.00;;;;;;5052064;28;20438;-56
2021/11/29 11:22:09;;;;;;;15.80;12.60;;;;;;;;;;5052230;28;20465;-57
2021/11/29 11:24:39;;;;;;;18.30;12.60;;;5.30;1.00;;;;;;5051565;28;21237;-57
2021/11/29 11:27:06;;;;;;;18.17;12.50;;;5.10;1.00;;;;;;5060630;28;20457;-57
2021/11/29 11:29:41;;;;;;;21.10;13.10;;;5.00;1.00;;;;;;5050116;28;20481;-55
2021/11/29 11:32:11;;;;;;;19.90;13.50;;;4.90;1.00;;;;;;5051207;28;20480;-57
2021/11/29 11:34:38;;;;;;;18.20;12.40;;;4.80;1.00;;;;;;5052216;28;20439;-58
2021/11/29 11:37:04;;;;;;;16.77;10.97;;;5.00;1.00;;;;;;5051934;28;20510;-56
2021/11/29 11:39:30;;;;;;;18.07;12.20;;;5.00;1.00;;;;;;5051951;28;20444;-58
2021/11/29 11:41:57;;;;;;;19.03;12.50;;;;;;;;;;5051820;28;20519;-56
2021/11/29 11:44:24;;;;;;;20.43;12.90;;;5.80;1.00;;;;;;5052142;28;20865;-57
2021/11/29 11:46:51;;;;;;;19.97;12.70;;;5.10;1.00;;;;;;5052081;28;20917;-57
2021/11/29 11:49:17;;;;;;;16.63;11.20;;;;;;;;;;5059674;28;20503;-57
2021/11/29 11:51:42;;;;;;;21.93;13.50;;;5.10;1.00;;;;;;5071761;28;20433;-57
2021/11/29 11:54:08;;;;;;;23.80;14.67;;;5.10;1.00;;;;;;5072026;28;20514;-56
2021/11/29 11:56:34;;;;;;;18.47;12.60;;;5.10;1.00;;;;;;5062192;28;20214;-57
2021/11/29 11:59:14;;;;;;;22.03;14.90;;;5.20;1.00;;;;;;5050565;28;20638;-58
2021/11/29 12:01:45;;;;;;;23.40;14.80;;;5.10;1.00;;;;;;5051400;28;20187;-57
2021/11/29 12:04:16;;;;;;;19.17;13.43;;;5.20;1.00;;;;;;5050637;28;20477;-56
2021/11/29 12:06:44;;;;;;;22.07;14.23;;;5.20;1.00;;;;;;5063311;28;20430;-57
2021/11/29 12:09:13;;;;;;;21.90;14.13;;;5.30;1.00;;;;;;5071506;28;20430;-55
2021/11/29 12:11:47;;;;;;;23.03;14.20;;;5.40;1.00;;;;;;5071528;28;20430;-56
2021/11/29 12:14:21;;;;;;;18.73;13.50;;;5.30;1.00;;;;;;5071549;28;20528;-56
2021/11/29 12:16:58;;;;;;;22.33;13.63;;;5.30;1.00;;;;;;5071282;28;20547;-58
2021/11/29 12:19:25;;;;;;;22.80;14.23;;;;;;;;;;5071403;28;20459;-58
2021/11/29 12:21:56;;;;;;;20.70;14.30;;;5.30;1.00;;;;;;5061854;28;20951;-57
2021/11/29 12:24:26;;;;;;;26.40;15.93;;;5.20;1.00;;;;;;5056834;28;20473;-57
2021/11/29 12:26:58;;;;;;;23.10;13.97;;;5.10;1.00;;;;;;5071712;28;20437;-56
2021/11/29 12:29:24;;;;;;;22.67;14.40;;;5.20;1.00;;;;;;5071419;28;20438;-57
2021/11/29 12:32:06;;;;;;;20.00;13.93;;;5.20;1.00;;;;;;5055854;28;20438;-58
2021/11/29 12:34:48;;;;;;;20.30;13.87;;;5.50;1.00;;;;;;5050177;28;20446;-57
2021/11/29 12:37:36;;;;;;;20.80;14.33;;;5.40;1.00;;;;;;5056484;28;20855;-57
2021/11/29 12:40:18;;;;;;;20.23;13.57;;;5.30;1.00;;;;;;5070984;28;20469;-57
2021/11/29 12:42:46;;;;;;;21.87;14.37;;;5.40;1.00;;;;;;5070130;28;20938;-57
2021/11/29 12:45:11;;;;;;;20.73;13.13;;;5.50;1.00;;;;;;5067687;28;20444;-57
2021/11/29 12:47:55;;;;;;;16.07;12.70;;;5.50;1.00;;;;;;5050882;28;20441;-56
2021/11/29 12:50:30;;;;;;;18.10;12.93;;;5.60;1.00;;;;;;5051094;28;20707;-57
2021/11/29 12:53:12;;;;;;;16.70;12.10;;;5.60;1.00;;;;;;5050698;28;20434;-55
2021/11/29 12:55:39;;;;;;;18.80;11.07;;;5.50;1.00;;;;;;5050863;28;20434;-57